Time;durP1;ratioP1;P1;durP2;ratioP2;P2;SDS_P1;SDS_P2;PMS_P1;PMS_P2;Temp;Humidity;BMP_temperature;BMP_pressure;BME280_temperature;BME280_humidity;BME280_pressure;Samples;Min_cycle;Max_cycle;Signal;HPM_P1;HPM_P2
2021/08/15 00:02:11;;;;;;;25.45;7.22;;;;;;;16.17;100.00;97918.13;5062473;28;20040;-79
2021/08/15 00:04:38;;;;;;;13.15;7.63;;;;;;;16.15;100.00;97923.16;5061358;28;20060;-80
2021/08/15 00:07:06;;;;;;;12.93;7.30;;;;;;;16.17;100.00;97916.19;5043905;28;20052;-80
2021/08/15 00:09:33;;;;;;;13.65;7.35;;;;;;;16.07;100.00;97913.16;5047017;28;20491;-81
2021/08/15 00:11:59;;;;;;;16.50;7.15;;;;;;;16.03;100.00;97917.69;5047783;28;20125;-81
2021/08/15 00:14:28;;;;;;;11.35;7.03;;;;;;;16.07;100.00;97915.88;5046864;28;20045;-80
2021/08/15 00:16:55;;;;;;;12.15;7.00;;;;;;;16.10;100.00;97912.47;5044839;28;20045;-80
2021/08/15 00:19:25;;;;;;;10.50;6.95;;;;;;;16.14;100.00;97913.34;5045884;28;20040;-81
2021/08/15 00:21:54;;;;;;;11.25;6.85;;;;;;;16.18;100.00;97909.59;5046202;28;20419;-81
2021/08/15 00:24:21;;;;;;;13.10;7.07;;;;;;;16.12;100.00;97905.50;5048556;28;20399;-81
2021/08/15 00:26:48;;;;;;;12.13;6.45;;;;;;;16.09;100.00;97902.66;5051122;28;20156;-81
2021/08/15 00:29:15;;;;;;;18.65;7.28;;;;;;;16.08;100.00;97912.78;5066597;28;20044;-80
2021/08/15 00:31:42;;;;;;;12.63;7.15;;;;;;;15.99;100.00;97906.66;5047925;28;20041;-81
2021/08/15 00:34:10;;;;;;;13.95;6.85;;;;;;;15.85;100.00;97897.22;5032951;28;20048;-81
2021/08/15 00:36:37;;;;;;;13.95;6.97;;;;;;;15.78;100.00;97905.19;5047559;28;20064;-81
2021/08/15 00:39:04;;;;;;;15.88;7.00;;;;;;;15.73;100.00;97905.44;5032019;28;20056;-81
2021/08/15 00:41:31;;;;;;;10.45;6.38;;;;;;;15.68;100.00;97905.66;5032517;28;20135;-81
2021/08/15 00:44:01;;;;;;;11.85;6.60;;;;;;;15.57;100.00;97899.84;5049409;28;20041;-81
2021/08/15 00:46:29;;;;;;;13.40;7.47;;;;;;;15.42;100.00;97903.22;5050811;28;20091;-81
2021/08/15 00:48:56;;;;;;;15.48;7.40;;;;;;;15.37;100.00;97901.50;5051673;28;20033;-82
2021/08/15 00:51:24;;;;;;;13.90;7.13;;;;;;;15.30;100.00;97900.47;5049978;28;20172;-81
2021/08/15 00:53:53;;;;;;;11.38;6.38;;;;;;;15.25;100.00;97901.47;5049921;28;20060;-80
2021/08/15 00:56:20;;;;;;;14.95;7.18;;;;;;;15.18;100.00;97903.16;5033731;28;20053;-80
2021/08/15 00:58:50;;;;;;;16.10;7.22;;;;;;;15.09;100.00;97899.75;5035582;28;20057;-80
2021/08/15 01:01:18;;;;;;;17.23;6.85;;;;;;;15.06;100.00;97900.41;5055597;28;20056;-80
2021/08/15 01:03:46;;;;;;;11.75;6.95;;;;;;;15.02;100.00;97897.56;5039185;28;20143;-81
2021/08/15 01:06:13;;;;;;;14.80;7.00;;;;;;;14.99;100.00;97892.81;5036150;28;20053;-81
2021/08/15 01:08:40;;;;;;;20.20;6.90;;;;;;;15.01;100.00;97892.47;5048247;28;20056;-80
2021/08/15 01:11:09;;;;;;;13.60;7.38;;;;;;;14.98;100.00;97902.09;5041381;28;20061;-81
2021/08/15 01:13:38;;;;;;;14.85;7.25;;;;;;;15.01;100.00;97898.72;5032489;28;20095;-81
2021/08/15 01:16:07;;;;;;;17.20;7.90;;;;;;;14.98;100.00;97897.47;5033090;28;20163;-81
2021/08/15 01:18:37;;;;;;;14.88;7.30;;;;;;;14.94;100.00;97893.78;5033613;28;20073;-81
2021/08/15 01:21:08;;;;;;;18.60;7.65;;;;;;;14.95;100.00;97887.22;5043206;28;20037;-81
2021/08/15 01:23:42;;;;;;;11.93;6.88;;;;;;;14.96;100.00;97904.38;5038782;28;20056;-80
2021/08/15 01:26:12;;;;;;;14.73;8.32;;;;;;;15.01;100.00;97889.72;5034092;28;20048;-81
2021/08/15 01:28:41;;;;;;;14.82;6.88;;;;;;;14.90;100.00;97894.81;5033687;28;20045;-81
2021/08/15 01:31:10;;;;;;;18.20;7.20;;;;;;;14.89;100.00;97899.47;5034451;28;20053;-80
2021/08/15 01:33:41;;;;;;;14.48;7.25;;;;;;;14.87;100.00;97890.03;5033738;28;20091;-81
2021/08/15 01:36:15;;;;;;;11.95;6.97;;;;;;;14.91;100.00;97901.88;5032140;28;20037;-81
2021/08/15 01:38:43;;;;;;;13.13;7.28;;;;;;;14.92;100.00;97898.00;5035573;28;20056;-81
2021/08/15 01:41:10;;;;;;;15.90;7.35;;;;;;;14.98;100.00;97896.66;5032854;28;20084;-81
2021/08/15 01:43:50;;;;;;;14.82;6.45;;;;;;;15.04;100.00;97899.97;5033477;28;20052;-81
2021/08/15 01:46:19;;;;;;;11.32;6.70;;;;;;;15.04;100.00;97897.25;5029891;28;20045;-81
2021/08/15 01:48:46;;;;;;;14.82;5.95;;;;;;;15.00;100.00;97894.38;5031834;28;20113;-81
2021/08/15 01:51:16;;;;;;;15.43;6.03;;;;;;;15.03;100.00;97882.00;5029969;28;20464;-80
2021/08/15 01:53:46;;;;;;;14.25;6.45;;;;;;;15.08;100.00;97893.50;5012555;28;20143;-82
2021/08/15 01:56:13;;;;;;;17.95;6.93;;;;;;;15.04;100.00;97891.78;5063502;23;20045;-83
2021/08/15 01:58:40;;;;;;;13.35;6.93;;;;;;;14.87;100.00;97890.84;5055556;28;20063;-84
2021/08/15 02:01:07;;;;;;;14.27;7.07;;;;;;;14.91;100.00;97894.50;5084134;28;20093;-83
2021/08/15 02:03:36;;;;;;;15.00;7.43;;;;;;;14.80;100.00;97879.69;5061182;28;20045;-83
2021/08/15 02:06:04;;;;;;;13.48;6.53;;;;;;;14.84;100.00;97880.59;5063610;28;20045;-83
2021/08/15 02:08:31;;;;;;;15.52;6.95;;;;;;;14.88;100.00;97881.53;5064119;28;20075;-83
2021/08/15 02:10:58;;;;;;;15.88;6.68;;;;;;;14.86;100.00;97877.53;5064787;28;20100;-83
2021/08/15 02:13:25;;;;;;;13.52;7.03;;;;;;;14.82;100.00;97871.97;5063574;28;20121;-83
2021/08/15 02:15:52;;;;;;;13.80;6.57;;;;;;;14.85;100.00;97871.28;5063045;28;20041;-82
2021/08/15 02:18:19;;;;;;;15.73;6.72;;;;;;;14.85;100.00;97884.13;5045883;28;20056;-82
2021/08/15 02:20:45;;;;;;;15.30;6.85;;;;;;;14.84;100.00;97888.78;5047065;28;20102;-82
2021/08/15 02:23:13;;;;;;;15.57;6.93;;;;;;;14.71;100.00;97878.19;5060532;28;20052;-81
2021/08/15 02:25:39;;;;;;;16.30;7.05;;;;;;;14.46;100.00;97890.09;5045848;28;20053;-81
2021/08/15 02:28:07;;;;;;;13.93;6.72;;;;;;;14.47;100.00;97883.53;5062441;28;20096;-82
2021/08/15 02:30:36;;;;;;;16.30;7.30;;;;;;;14.51;100.00;97882.50;5053722;28;20045;-83
2021/08/15 02:33:03;;;;;;;16.25;7.30;;;;;;;14.47;100.00;97888.97;5056632;28;20060;-83
2021/08/15 02:35:31;;;;;;;18.13;7.80;;;;;;;14.36;100.00;97891.31;5057386;28;20051;-83
2021/08/15 02:37:59;;;;;;;19.55;7.35;;;;;;;14.28;100.00;97892.13;5071886;28;20079;-81
2021/08/15 02:40:28;;;;;;;15.00;6.95;;;;;;;14.22;100.00;97893.47;5064227;28;20076;-82
2021/08/15 02:42:56;;;;;;;14.23;7.63;;;;;;;14.30;100.00;97892.59;5062942;28;20081;-81
2021/08/15 02:45:25;;;;;;;17.50;7.18;;;;;;;14.45;100.00;97885.78;5042827;28;20048;-81
2021/08/15 02:47:55;;;;;;;15.18;6.90;;;;;;;14.43;100.00;97879.88;5060487;28;20045;-82
2021/08/15 02:50:22;;;;;;;22.63;7.50;;;;;;;14.44;100.00;97887.72;5060973;28;20056;-81
2021/08/15 02:52:52;;;;;;;14.10;7.03;;;;;;;14.47;100.00;97886.25;5058115;28;20120;-81
2021/08/15 02:55:19;;;;;;;13.30;7.15;;;;;;;14.47;100.00;97883.53;5043373;28;20081;-82
2021/08/15 02:57:45;;;;;;;15.25;7.28;;;;;;;14.47;100.00;97878.06;5059903;28;20044;-81
2021/08/15 03:00:13;;;;;;;17.65;7.18;;;;;;;14.55;100.00;97888.09;5061472;28;20033;-82
2021/08/15 03:02:43;;;;;;;16.48;7.43;;;;;;;14.59;100.00;97887.09;5065050;28;20067;-80
2021/08/15 03:05:11;;;;;;;12.88;6.85;;;;;;;14.64;100.00;97883.34;5037228;28;20048;-80
2021/08/15 03:07:38;;;;;;;13.77;7.25;;;;;;;14.59;100.00;97878.91;5061851;28;20109;-81
2021/08/15 03:10:08;;;;;;;12.00;6.88;;;;;;;14.51;100.00;97876.25;5060905;28;20094;-81
2021/08/15 03:12:35;;;;;;;14.77;7.65;;;;;;;14.46;100.00;97871.81;5059176;28;20159;-82
2021/08/15 03:15:03;;;;;;;16.95;7.68;;;;;;;14.36;100.00;97877.69;5059178;28;20044;-81
2021/08/15 03:17:29;;;;;;;15.15;7.13;;;;;;;14.24;100.00;97863.97;5048974;28;20037;-81
2021/08/15 03:19:56;;;;;;;13.77;7.13;;;;;;;14.32;100.00;97863.91;5082966;28;20056;-83
2021/08/15 03:22:23;;;;;;;15.68;7.88;;;;;;;14.40;100.00;97869.66;5049808;28;20045;-82
2021/08/15 03:24:50;;;;;;;15.65;7.50;;;;;;;14.51;100.00;97863.44;5067008;28;20053;-82
2021/08/15 03:27:16;;;;;;;15.02;7.38;;;;;;;14.53;100.00;97863.91;5067875;28;20045;-82
2021/08/15 03:29:43;;;;;;;16.65;7.38;;;;;;;14.48;100.00;97858.66;5068332;28;20025;-81
2021/08/15 03:32:10;;;;;;;12.77;7.55;;;;;;;14.58;100.00;97868.38;5050135;28;20481;-82
2021/08/15 03:34:36;;;;;;;16.23;8.23;;;;;;;14.56;100.00;97863.25;5067104;28;20112;-82
2021/08/15 03:37:03;;;;;;;22.17;7.05;;;;;;;14.55;100.00;97867.13;5060466;28;20044;-81
2021/08/15 03:39:30;;;;;;;14.85;7.85;;;;;;;14.58;100.00;97866.41;5059447;28;20053;-81
2021/08/15 03:41:58;;;;;;;15.63;7.88;;;;;;;14.54;100.00;97861.97;5041000;28;20055;-81
2021/08/15 03:44:30;;;;;;;14.50;7.85;;;;;;;14.56;100.00;97868.69;5057580;28;20514;-82
2021/08/15 03:46:57;;;;;;;10.95;7.13;;;;;;;14.56;100.00;97857.78;5055656;28;20033;-82
2021/08/15 03:49:24;;;;;;;12.85;7.38;;;;;;;14.51;100.00;97860.72;5039270;28;20125;-81
2021/08/15 03:51:51;;;;;;;12.07;7.28;;;;;;;14.55;100.00;97852.69;5057019;28;20116;-82
2021/08/15 03:54:20;;;;;;;13.13;7.10;;;;;;;14.55;100.00;97864.38;5065533;28;20110;-80
2021/08/15 03:56:48;;;;;;;15.52;7.90;;;;;;;14.58;100.00;97860.19;5050980;28;20053;-80
2021/08/15 03:59:17;;;;;;;11.70;7.20;;;;;;;14.61;100.00;97863.03;5052496;28;20045;-80
2021/08/15 04:01:44;;;;;;;12.57;7.00;;;;;;;14.63;100.00;97858.06;5055197;28;20045;-81
2021/08/15 04:04:11;;;;;;;16.77;7.75;;;;;;;14.60;100.00;97856.00;5057762;28;20048;-82
2021/08/15 04:06:41;;;;;;;17.27;7.50;;;;;;;14.62;100.00;97853.72;5040299;28;20045;-82
2021/08/15 04:09:11;;;;;;;16.05;7.80;;;;;;;14.53;100.00;97858.44;5055603;28;20048;-82
2021/08/15 04:11:39;;;;;;;17.50;7.47;;;;;;;14.50;100.00;97855.63;5056040;28;20041;-80
2021/08/15 04:14:10;;;;;;;14.25;7.78;;;;;;;14.53;100.00;97847.56;5038424;28;20041;-81
2021/08/15 04:16:37;;;;;;;12.02;7.78;;;;;;;14.62;100.00;97861.91;5034528;28;20159;-81
2021/08/15 04:19:03;;;;;;;16.35;9.50;;;;;;;14.60;100.00;97857.94;5031422;28;20348;-80
2021/08/15 04:21:40;;;;;;;15.57;9.60;;;;;;;14.61;100.00;97859.50;5032437;28;20586;-80
2021/08/15 04:24:12;;;;;;;18.17;9.93;;;;;;;14.54;100.00;97840.19;5036530;28;20560;-82
2021/08/15 04:26:43;;;;;;;20.20;9.23;;;;;;;14.50;100.00;97847.44;5038662;28;20050;-81
2021/08/15 04:29:13;;;;;;;17.27;9.60;;;;;;;14.57;100.00;97855.88;5037107;28;20132;-82
2021/08/15 04:31:44;;;;;;;18.70;8.93;;;;;;;14.57;100.00;97853.16;5036247;28;20065;-81
2021/08/15 04:34:13;;;;;;;15.40;8.20;;;;;;;14.49;100.00;97843.13;5035475;28;20117;-81
2021/08/15 04:36:42;;;;;;;16.95;7.95;;;;;;;14.46;100.00;97857.41;5035242;28;20498;-81
2021/08/15 04:39:09;;;;;;;19.00;9.00;;;;;;;14.51;100.00;97865.38;5036019;28;20045;-80
2021/08/15 04:41:36;;;;;;;21.17;9.90;;;;;;;14.45;100.00;97845.72;5035075;28;20045;-81
2021/08/15 04:44:04;;;;;;;18.52;9.38;;;;;;;14.59;100.00;97868.03;5042300;28;20052;-81
2021/08/15 04:46:31;;;;;;;19.40;9.38;;;;;;;14.60;100.00;97855.19;5037600;28;20053;-81
2021/08/15 04:49:02;;;;;;;17.00;8.23;;;;;;;14.61;100.00;97857.56;5038141;28;20580;-81
2021/08/15 04:51:34;;;;;;;17.13;8.52;;;;;;;14.56;100.00;97846.09;5021175;28;20042;-80
2021/08/15 04:54:01;;;;;;;12.90;8.07;;;;;;;14.67;100.00;97863.63;5039490;28;20042;-81
2021/08/15 04:56:30;;;;;;;13.50;8.32;;;;;;;14.71;100.00;97856.38;5022247;28;20049;-81
2021/08/15 04:58:59;;;;;;;13.02;7.95;;;;;;;14.71;100.00;97850.94;5038396;28;20055;-82
2021/08/15 05:01:26;;;;;;;14.45;8.10;;;;;;;14.74;100.00;97847.50;5054783;28;20072;-80
2021/08/15 05:03:53;;;;;;;13.85;7.95;;;;;;;14.74;100.00;97847.50;5039591;28;20064;-81
2021/08/15 05:06:20;;;;;;;16.42;8.50;;;;;;;14.76;100.00;97851.50;5039338;28;20719;-81
2021/08/15 05:08:48;;;;;;;16.83;8.18;;;;;;;14.79;100.00;97845.38;5039092;28;20042;-81
2021/08/15 05:11:19;;;;;;;16.90;8.40;;;;;;;14.88;100.00;97840.63;5038456;28;20029;-82
2021/08/15 05:13:46;;;;;;;14.55;7.93;;;;;;;14.92;100.00;97836.09;5037219;28;20042;-81
2021/08/15 05:16:12;;;;;;;12.23;7.70;;;;;;;14.98;100.00;97840.19;5017971;28;20474;-82
2021/08/15 05:18:39;;;;;;;12.45;8.35;;;;;;;15.06;100.00;97843.16;5034483;28;20473;-82
2021/08/15 05:21:08;;;;;;;14.15;8.43;;;;;;;15.13;100.00;97854.31;5034075;28;20121;-80
2021/08/15 05:23:38;;;;;;;16.75;8.57;;;;;;;15.25;100.00;97852.38;5017181;28;20051;-81
2021/08/15 05:26:05;;;;;;;14.32;8.32;;;;;;;15.29;100.00;97850.59;5033398;28;20037;-80
2021/08/15 05:28:32;;;;;;;15.25;8.90;;;;;;;15.31;100.00;97856.47;5033593;28;20085;-81
2021/08/15 05:30:58;;;;;;;15.32;8.43;;;;;;;15.44;100.00;97860.00;5034102;28;20418;-81
2021/08/15 05:33:28;;;;;;;13.80;8.02;;;;;;;15.54;100.00;97854.94;5016234;28;20056;-81
2021/08/15 05:35:55;;;;;;;14.85;7.85;;;;;;;15.59;100.00;97851.97;5067731;28;20128;-81
2021/08/15 05:38:21;;;;;;;12.55;7.78;;;;;;;15.66;100.00;97851.41;5055070;28;20410;-82
2021/08/15 05:40:48;;;;;;;17.60;7.95;;;;;;;15.76;100.00;97850.94;5033520;28;20088;-82
2021/08/15 05:43:15;;;;;;;15.43;7.70;;;;;;;15.88;100.00;97853.66;5040196;28;20049;-80
2021/08/15 05:45:43;;;;;;;19.52;8.25;;;;;;;15.92;100.00;97845.59;5066512;28;20044;-80
2021/08/15 05:48:10;;;;;;;13.05;7.43;;;;;;;16.00;100.00;97845.44;5039975;28;20592;-82
2021/08/15 05:50:37;;;;;;;18.05;8.48;;;;;;;16.17;100.00;97842.44;5038106;28;20079;-81
2021/08/15 05:53:04;;;;;;;15.52;7.80;;;;;;;16.34;100.00;97854.22;5037508;28;20640;-82
2021/08/15 05:55:31;;;;;;;16.60;7.63;;;;;;;16.46;100.00;97846.00;5036607;28;20058;-83
2021/08/15 05:57:58;;;;;;;18.88;8.13;;;;;;;16.59;100.00;97829.22;5034685;28;20076;-81
2021/08/15 06:00:26;;;;;;;16.98;6.90;;;;;;;16.72;100.00;97821.75;5034157;28;20045;-81
2021/08/15 06:02:56;;;;;;;18.98;8.35;;;;;;;16.94;100.00;97829.38;5049147;28;20046;-81
2021/08/15 06:05:29;;;;;;;16.60;8.32;;;;;;;17.18;100.00;97822.94;5021224;28;20053;-80
2021/08/15 06:07:59;;;;;;;21.33;8.23;;;;;;;17.19;100.00;97800.69;5037662;28;20049;-82
2021/08/15 06:10:25;;;;;;;23.60;9.27;;;;;;;17.47;100.00;97810.75;5050103;28;20416;-83
2021/08/15 06:12:52;;;;;;;16.88;8.63;;;;;;;17.68;100.00;97812.06;5017530;28;20064;-82
2021/08/15 06:15:24;;;;;;;17.02;7.90;;;;;;;17.84;100.00;97810.09;5035570;28;20408;-82
2021/08/15 06:17:51;;;;;;;16.35;7.88;;;;;;;18.03;100.00;97804.66;5018298;28;20053;-82
2021/08/15 06:20:18;;;;;;;17.00;7.90;;;;;;;18.09;100.00;97799.69;5037497;28;20069;-82
2021/08/15 06:22:46;;;;;;;15.25;7.85;;;;;;;18.25;100.00;97805.88;5054515;28;20069;-82
2021/08/15 06:25:15;;;;;;;16.40;7.93;;;;;;;18.36;100.00;97804.13;5037700;28;20052;-81
2021/08/15 06:27:46;;;;;;;12.95;6.75;;;;;;;18.45;100.00;97801.19;5053844;28;20041;-82
2021/08/15 06:30:22;;;;;;;17.08;6.97;;;;;;;18.59;100.00;97821.47;5037412;28;20109;-81
2021/08/15 06:32:54;;;;;;;15.57;6.97;;;;;;;18.63;100.00;97805.88;5029972;28;20055;-82
2021/08/15 06:35:24;;;;;;;13.50;6.72;;;;;;;18.82;100.00;97818.75;5039466;28;20146;-82
2021/08/15 06:37:53;;;;;;;14.82;6.95;;;;;;;18.96;100.00;97818.22;5037312;28;20060;-81
2021/08/15 06:40:24;;;;;;;17.58;6.50;;;;;;;19.08;100.00;97805.13;5050207;28;20232;-81
2021/08/15 06:42:51;;;;;;;15.68;6.97;;;;;;;19.17;100.00;97813.13;5054345;28;20049;-81
2021/08/15 06:45:21;;;;;;;14.82;5.47;;;;;;;19.18;100.00;97804.50;5054297;28;20045;-80
2021/08/15 06:47:48;;;;;;;15.52;5.93;;;;;;;19.30;100.00;97792.56;5036012;28;20295;-81
2021/08/15 06:50:15;;;;;;;18.27;6.10;;;;;;;19.40;100.00;97815.88;5035650;28;20052;-81
2021/08/15 06:52:43;;;;;;;13.10;5.97;;;;;;;19.46;100.00;97806.94;5045252;28;20421;-81
2021/08/15 06:55:10;;;;;;;16.13;6.00;;;;;;;19.69;100.00;97813.19;5060967;28;20606;-82
2021/08/15 06:57:39;;;;;;;12.75;5.90;;;;;;;19.72;100.00;97806.16;5056620;28;20044;-82
2021/08/15 07:00:07;;;;;;;12.63;5.72;;;;;;;19.86;100.00;97807.19;5057810;28;20036;-81
2021/08/15 07:02:37;;;;;;;12.82;4.85;;;;;;;20.00;100.00;97806.59;5054439;28;20139;-81
2021/08/15 07:05:09;;;;;;;19.42;5.78;;;;;;;20.00;100.00;97806.59;5066001;28;20040;-81
2021/08/15 07:07:39;;;;;;;19.23;5.00;;;;;;;20.13;100.00;97809.91;5065373;28;20124;-81
2021/08/15 07:10:08;;;;;;;12.38;4.68;;;;;;;20.13;100.00;97807.91;5050601;28;20048;-81
2021/08/15 07:12:35;;;;;;;11.18;4.82;;;;;;;20.31;100.00;97821.94;5056555;28;20152;-82
2021/08/15 07:15:06;;;;;;;17.05;4.97;;;;;;;20.35;100.00;97811.78;5074263;28;20044;-81
2021/08/15 07:17:36;;;;;;;11.52;4.78;;;;;;;20.49;100.00;97811.97;5072349;28;20052;-81
2021/08/15 07:20:05;;;;;;;15.05;4.88;;;;;;;20.52;100.00;97811.19;5065255;28;20045;-80
2021/08/15 07:22:31;;;;;;;13.90;4.95;;;;;;;20.53;100.00;97804.53;5052098;28;20049;-81
2021/08/15 07:24:59;;;;;;;14.13;4.80;;;;;;;20.61;100.00;97802.66;5054682;28;20062;-81
2021/08/15 07:27:26;;;;;;;12.10;4.95;;;;;;;20.63;100.00;97805.81;5072654;28;20048;-80
2021/08/15 07:29:52;;;;;;;11.63;4.30;;;;;;;20.73;100.00;97796.88;5073132;28;20544;-81
2021/08/15 07:32:19;;;;;;;15.15;5.10;;;;;;;20.77;100.00;97812.28;5070198;28;20064;-80
2021/08/15 07:34:48;;;;;;;17.65;5.25;;;;;;;20.78;100.00;97805.59;5069284;28;20044;-82
2021/08/15 07:37:15;;;;;;;13.57;6.28;;;;;;;20.83;100.00;97804.44;5086644;28;20054;-80
2021/08/15 07:39:44;;;;;;;14.25;5.20;;;;;;;20.86;100.00;97801.75;5069877;28;20102;-82
2021/08/15 07:42:20;;;;;;;16.20;5.47;;;;;;;20.89;100.00;97792.72;5070430;28;20098;-80
2021/08/15 07:44:47;;;;;;;15.05;5.45;;;;;;;21.03;100.00;97790.09;5069603;28;20045;-79
2021/08/15 07:47:13;;;;;;;14.30;5.32;;;;;;;21.10;100.00;97794.94;5085483;28;20044;-79
2021/08/15 07:49:40;;;;;;;15.02;5.63;;;;;;;21.09;100.00;97785.88;5069488;28;20072;-76
2021/08/15 07:52:07;;;;;;;15.45;5.47;;;;;;;21.09;100.00;97788.63;5071519;28;20055;-83
2021/08/15 07:54:38;;;;;;;12.63;5.35;;;;;;;21.32;100.00;97790.41;5059755;28;20060;-83
2021/08/15 07:57:08;;;;;;;15.25;4.68;;;;;;;21.47;100.00;97792.09;5059631;28;20079;-81
2021/08/15 07:59:37;;;;;;;15.63;5.28;;;;;;;21.54;100.00;97789.38;5049697;28;20114;-80
2021/08/15 08:02:04;;;;;;;11.20;4.70;;;;;;;21.62;100.00;97780.00;5062020;23;20112;-77
2021/08/15 08:04:31;;;;;;;13.50;5.57;;;;;;;21.62;100.00;97793.78;5033812;28;20073;-77
2021/08/15 08:07:02;;;;;;;13.00;4.80;;;;;;;21.76;100.00;97777.31;5026560;28;20132;-78
2021/08/15 08:09:29;;;;;;;13.65;5.40;;;;;;;22.00;100.00;97790.50;5029558;28;20049;-78
2021/08/15 08:11:56;;;;;;;11.93;5.93;;;;;;;22.05;100.00;97781.84;5029503;28;20037;-78
2021/08/15 08:14:23;;;;;;;11.77;5.38;;;;;;;22.09;100.00;97787.41;5042962;28;20470;-77
2021/08/15 08:16:53;;;;;;;12.77;5.10;;;;;;;22.24;100.00;97794.56;5030387;28;20380;-78
2021/08/15 08:19:20;;;;;;;12.98;5.72;;;;;;;22.22;100.00;97775.63;5050118;28;20045;-78
2021/08/15 08:21:46;;;;;;;12.45;4.97;;;;;;;22.29;100.00;97792.22;5030318;28;20056;-78
2021/08/15 08:24:13;;;;;;;12.57;5.75;;;;;;;22.24;100.00;97786.28;5020899;28;20267;-77
2021/08/15 08:26:39;;;;;;;17.40;5.38;;;;;;;22.34;100.00;97788.28;5033763;28;20053;-77
2021/08/15 08:29:06;;;;;;;10.05;5.13;;;;;;;22.53;100.00;97789.94;5015241;28;20073;-77
2021/08/15 08:31:32;;;;;;;21.92;6.18;;;;;;;22.75;100.00;97781.34;5014269;28;20041;-77
2021/08/15 08:33:59;;;;;;;12.40;5.60;;;;;;;22.83;100.00;97773.88;5016227;28;20054;-79
2021/08/15 08:36:26;;;;;;;14.38;5.68;;;;;;;23.09;100.00;97772.72;5031352;28;20045;-77
2021/08/15 08:38:52;;;;;;;12.93;4.97;;;;;;;23.30;100.00;97772.75;5032922;28;20053;-77
2021/08/15 08:41:20;;;;;;;10.82;5.32;;;;;;;23.38;100.00;97775.13;5014320;28;20229;-77
2021/08/15 08:43:48;;;;;;;18.92;6.40;;;;;;;23.13;100.00;97770.75;5014947;28;20045;-77
2021/08/15 08:46:17;;;;;;;17.58;5.63;;;;;;;23.61;100.00;97774.72;5031753;28;20060;-77
2021/08/15 08:48:44;;;;;;;11.15;5.20;;;;;;;23.98;100.00;97782.53;5031495;28;20053;-77
2021/08/15 08:51:10;;;;;;;11.77;5.90;;;;;;;23.85;100.00;97776.63;5013208;28;20080;-77
2021/08/15 08:53:38;;;;;;;14.65;5.43;;;;;;;24.17;100.00;97771.84;5031012;28;20494;-76
2021/08/15 08:56:05;;;;;;;13.63;5.22;;;;;;;24.25;100.00;97767.06;5029805;28;20064;-77
2021/08/15 08:58:31;;;;;;;12.82;5.05;;;;;;;24.57;100.00;97756.63;5032166;28;20107;-77
2021/08/15 09:00:58;;;;;;;11.60;5.18;;;;;;;24.75;100.00;97762.84;5032694;28;20049;-79
2021/08/15 09:03:26;;;;;;;14.13;5.13;;;;;;;24.77;100.00;97765.22;5013304;28;20045;-78
2021/08/15 09:05:55;;;;;;;14.30;5.60;;;;;;;25.02;100.00;97754.81;5030619;28;20109;-78
2021/08/15 09:08:32;;;;;;;17.05;5.05;;;;;;;24.84;100.00;97754.13;5013714;28;20107;-80
2021/08/15 09:11:13;;;;;;;11.98;4.75;;;;;;;25.29;100.00;97753.00;5032182;28;20053;-79
2021/08/15 09:13:41;;;;;;;15.65;5.32;;;;;;;25.33;100.00;97747.44;5039290;28;20057;-80
2021/08/15 09:16:08;;;;;;;14.68;5.35;;;;;;;25.20;100.00;97744.38;5051812;28;20045;-79
2021/08/15 09:18:35;;;;;;;10.35;4.88;;;;;;;25.00;100.00;97753.63;5017804;28;20084;-80
2021/08/15 09:21:02;;;;;;;9.40;5.32;;;;;;;25.00;100.00;97742.56;5033753;28;20091;-80
2021/08/15 09:23:31;;;;;;;12.52;4.90;;;;;;;25.17;100.00;97744.38;5051701;28;20041;-80
2021/08/15 09:26:28;;;;;;;16.23;4.90;;;;;;;25.47;100.00;97739.03;5052796;28;20132;-81
2021/08/15 09:29:19;;;;;;;19.30;4.90;;;;;;;25.86;100.00;97738.63;5049957;28;20526;-81
2021/08/15 09:31:47;;;;;;;9.75;4.78;;;;;;;26.04;100.00;97732.88;5034598;28;20064;-80
2021/08/15 09:34:29;;;;;;;16.67;5.70;;;;;;;25.84;100.00;97730.72;5022157;28;20423;-82
2021/08/15 09:36:56;;;;;;;9.57;5.40;;;;;;;26.17;100.00;97728.41;5032670;28;20096;-81
2021/08/15 09:39:33;;;;;;;14.63;5.35;;;;;;;25.83;100.00;97726.38;5032265;28;20049;-81
2021/08/15 09:42:01;;;;;;;11.43;5.50;;;;;;;25.78;100.00;97721.25;5035037;28;20053;-80
2021/08/15 09:44:29;;;;;;;17.40;5.20;;;;;;;26.04;100.00;97721.78;5026742;28;20045;-80
2021/08/15 09:47:10;;;;;;;10.25;5.63;;;;;;;26.33;100.00;97723.81;5034597;28;20048;-81
2021/08/15 09:49:45;;;;;;;12.13;5.90;;;;;;;26.27;100.00;97714.38;5028831;28;20051;-82
2021/08/15 09:52:14;;;;;;;14.02;5.85;;;;;;;26.41;100.00;97713.38;5017758;28;20045;-81
2021/08/15 09:54:58;;;;;;;16.52;5.65;;;;;;;26.75;97.82;97719.66;5051435;28;20140;-82
2021/08/15 09:57:33;;;;;;;11.43;5.57;;;;;;;27.54;89.94;97706.88;5024257;28;20060;-79
2021/08/15 10:00:00;;;;;;;12.48;5.60;;;;;;;28.16;78.02;97705.31;5031090;28;20037;-79
2021/08/15 10:02:27;;;;;;;9.35;4.95;;;;;;;28.20;71.27;97704.03;5040320;28;20496;-82
2021/08/15 10:04:55;;;;;;;15.40;4.90;;;;;;;27.72;74.19;97706.53;5052265;28;20544;-80
2021/08/15 10:07:24;;;;;;;12.75;4.95;;;;;;;27.49;79.07;97698.22;5055776;28;20048;-80
2021/08/15 10:09:51;;;;;;;9.70;4.75;;;;;;;28.95;64.47;97709.53;5067017;28;20060;-80
2021/08/15 10:12:18;;;;;;;9.98;4.70;;;;;;;28.98;62.87;97702.31;5052644;28;20053;-80
2021/08/15 10:14:44;;;;;;;11.65;4.68;;;;;;;28.89;61.71;97704.91;5052954;28;20053;-80
2021/08/15 10:17:16;;;;;;;9.82;4.63;;;;;;;29.50;58.43;97697.41;5051034;28;20124;-80
2021/08/15 10:20:00;;;;;;;10.32;4.75;;;;;;;29.31;58.17;97694.75;5068758;28;20041;-80
2021/08/15 10:22:32;;;;;;;15.52;4.35;;;;;;;30.16;52.21;97696.03;5070187;28;20055;-80
2021/08/15 10:25:05;;;;;;;10.98;4.60;;;;;;;30.34;51.71;97692.69;5048185;28;20033;-81
2021/08/15 10:27:41;;;;;;;7.60;4.18;;;;;;;30.51;47.58;97681.00;5048607;28;20057;-80
2021/08/15 10:30:13;;;;;;;11.07;4.38;;;;;;;30.32;48.65;97681.97;5041296;28;20041;-80
2021/08/15 10:32:55;;;;;;;9.52;4.25;;;;;;;30.37;47.90;97681.47;5029445;28;20037;-81
2021/08/15 10:35:22;;;;;;;8.85;4.03;;;;;;;30.63;49.70;97682.25;5048800;28;20069;-81
2021/08/15 10:37:56;;;;;;;7.57;3.85;;;;;;;30.13;48.06;97678.13;5032566;28;20049;-81
2021/08/15 10:40:38;;;;;;;9.40;4.03;;;;;;;31.52;45.74;97675.34;5015667;28;20063;-80
2021/08/15 10:43:25;;;;;;;8.15;4.05;;;;;;;30.73;46.82;97670.75;5016276;28;20604;-80
2021/08/15 10:46:09;;;;;;;9.52;4.18;;;;;;;30.73;44.46;97673.53;4993667;28;20065;-81
2021/08/15 10:49:12;;;;;;;10.18;4.28;;;;;;;29.05;52.11;97663.09;5028134;28;20095;-81
2021/08/15 10:51:42;;;;;;;9.63;4.25;;;;;;;29.52;53.95;97664.28;4940367;29;20051;-80
2021/08/15 10:54:28;;;;;;;8.38;3.70;;;;;;;30.04;47.81;97654.91;4980646;28;20064;-80
2021/08/15 10:56:58;;;;;;;7.65;4.13;;;;;;;30.88;48.37;97659.09;5001939;28;20068;-80
2021/08/15 10:59:43;;;;;;;7.07;3.63;;;;;;;31.50;43.99;97655.44;5029635;28;20072;-81
2021/08/15 11:02:15;;;;;;;11.60;4.60;;;;;;;31.55;44.57;97640.88;5029388;28;20100;-82
2021/08/15 11:04:59;;;;;;;10.90;4.65;;;;;;;30.69;44.74;97649.72;5042067;28;20106;-80
2021/08/15 11:07:35;;;;;;;8.15;3.95;;;;;;;31.40;44.08;97653.78;5032483;28;20156;-79
2021/08/15 11:10:05;;;;;;;6.80;4.03;;;;;;;31.04;44.78;97643.00;5001097;28;20340;-79
2021/08/15 11:12:32;;;;;;;9.98;3.45;;;;;;;30.85;45.18;97647.59;5019819;28;20052;-80
2021/08/15 11:15:09;;;;;;;8.18;4.20;;;;;;;31.60;42.75;97636.69;5027617;28;20060;-81
2021/08/15 11:17:38;;;;;;;8.40;4.30;;;;;;;31.33;43.94;97632.41;5011829;28;20462;-80
2021/08/15 11:20:38;;;;;;;7.97;4.05;;;;;;;31.39;42.67;97638.19;5012559;28;20043;-82
2021/08/15 11:23:12;;;;;;;9.68;3.67;;;;;;;30.58;50.91;97630.50;5046054;28;20060;-80
2021/08/15 11:25:39;;;;;;;6.78;3.75;;;;;;;30.72;48.35;97635.63;5021108;28;20435;-81
2021/08/15 11:28:06;;;;;;;5.63;3.80;;;;;;;31.11;44.18;97617.59;4998583;28;20043;-80
2021/08/15 11:30:33;;;;;;;8.40;3.58;;;;;;;30.37;43.64;97622.78;5022166;28;20441;-81